createdAt,value
2019-03-23T00:00:00.537Z,10.43
2019-03-23T00:02:30.908Z,10.23
2019-03-23T00:05:01.261Z,8.00
2019-03-23T00:07:31.532Z,11.57
2019-03-23T00:10:02.019Z,9.90
2019-03-23T00:12:32.367Z,8.70
2019-03-23T00:15:02.842Z,7.67
2019-03-23T00:17:33.441Z,10.78
2019-03-23T00:20:03.984Z,11.20
2019-03-23T00:22:34.740Z,10.53
2019-03-23T00:25:05.639Z,8.33
2019-03-23T00:27:36.076Z,9.43
2019-03-23T00:30:07.992Z,8.33
2019-03-23T00:32:38.311Z,8.13
2019-03-23T00:35:09.198Z,10.18
2019-03-23T00:37:39.585Z,12.27
2019-03-23T00:40:11.101Z,13.40
2019-03-23T00:42:41.584Z,13.43
2019-03-23T00:45:11.964Z,14.30
2019-03-23T00:47:42.362Z,11.23
2019-03-23T00:50:14.093Z,9.70
2019-03-23T00:52:44.321Z,8.27
2019-03-23T00:55:14.714Z,8.20
2019-03-23T00:57:46.047Z,8.57
2019-03-23T01:00:16.579Z,10.47
2019-03-23T01:02:46.973Z,9.93
2019-03-23T01:05:17.579Z,9.03
2019-03-23T01:07:48.133Z,8.70
2019-03-23T01:10:18.560Z,7.83
2019-03-23T01:12:48.895Z,9.10
2019-03-23T01:15:20.228Z,8.23
2019-03-23T01:17:50.640Z,9.10
2019-03-23T01:20:20.928Z,8.97
2019-03-23T01:22:51.347Z,9.43
2019-03-23T01:25:21.791Z,13.93
2019-03-23T01:27:52.504Z,11.80
2019-03-23T01:30:22.772Z,12.10
2019-03-23T01:32:53.058Z,14.33
2019-03-23T01:35:23.739Z,11.90
2019-03-23T01:37:56.007Z,11.83
2019-03-23T01:40:27.058Z,15.20
2019-03-23T01:42:58.012Z,15.10
2019-03-23T01:45:29.461Z,11.53
2019-03-23T01:48:02.643Z,19.07
2019-03-23T01:50:33.109Z,14.40
2019-03-23T01:53:03.649Z,14.70
2019-03-23T01:55:39.201Z,15.20
2019-03-23T01:58:09.556Z,13.77
2019-03-23T02:00:40.963Z,20.00
2019-03-23T02:03:11.416Z,19.97
2019-03-23T02:05:41.733Z,18.60
2019-03-23T02:08:12.149Z,22.13
2019-03-23T02:10:42.417Z,20.23
2019-03-23T02:13:12.801Z,26.87
2019-03-23T02:15:43.029Z,28.37
2019-03-23T02:18:13.439Z,33.80
2019-03-23T02:20:44.661Z,37.63
2019-03-23T02:23:14.918Z,34.67
2019-03-23T02:25:45.191Z,41.90
2019-03-23T02:28:15.594Z,52.20
2019-03-23T02:30:45.928Z,57.55
2019-03-23T02:33:16.213Z,58.67
2019-03-23T02:35:46.614Z,66.17
2019-03-23T02:38:16.963Z,63.27
2019-03-23T02:40:47.297Z,68.90
2019-03-23T02:43:17.605Z,70.80
2019-03-23T02:45:48.058Z,69.40
2019-03-23T02:48:19.177Z,70.03
2019-03-23T02:50:49.692Z,71.97
2019-03-23T02:53:19.997Z,72.17
2019-03-23T02:55:50.365Z,70.37
2019-03-23T02:58:20.714Z,72.00
2019-03-23T03:00:51.078Z,64.92
2019-03-23T03:03:21.478Z,67.47
2019-03-23T03:05:51.802Z,72.10
2019-03-23T03:08:22.056Z,72.60
2019-03-23T03:10:52.666Z,73.93
2019-03-23T03:13:23.066Z,77.07
2019-03-23T03:15:53.514Z,74.03
2019-03-23T03:18:23.949Z,69.07
2019-03-23T03:20:54.564Z,68.57
2019-03-23T03:23:24.919Z,73.53
2019-03-23T03:25:56.704Z,74.40
2019-03-23T03:28:27.309Z,78.27
2019-03-23T03:30:57.734Z,78.95
2019-03-23T03:33:28.337Z,81.90
2019-03-23T03:35:58.721Z,81.97
2019-03-23T03:38:28.969Z,81.47
2019-03-23T03:41:00.068Z,84.13
2019-03-23T03:43:30.328Z,96.90
2019-03-23T03:46:00.718Z,97.60
2019-03-23T03:48:30.983Z,102.43
2019-03-23T03:51:01.315Z,103.40
2019-03-23T03:53:31.700Z,102.37
2019-03-23T03:56:02.079Z,103.00
2019-03-23T03:58:32.350Z,100.07
2019-03-23T04:01:02.730Z,95.67
2019-03-23T04:03:32.988Z,88.30
2019-03-23T04:06:03.252Z,98.90
2019-03-23T04:08:33.780Z,95.70
2019-03-23T04:11:04.173Z,103.93
2019-03-23T04:13:34.476Z,97.97
2019-03-23T04:16:04.988Z,98.37
2019-03-23T04:18:35.337Z,110.30
2019-03-23T04:21:05.879Z,102.40
2019-03-23T04:23:36.174Z,108.83
2019-03-23T04:26:06.737Z,109.07
2019-03-23T04:28:37.043Z,100.18
2019-03-23T04:31:07.361Z,107.47
2019-03-23T04:33:38.570Z,117.73
2019-03-23T04:36:08.897Z,125.45
2019-03-23T04:38:39.304Z,117.77
2019-03-23T04:41:09.613Z,124.43
2019-03-23T04:43:39.942Z,124.37
2019-03-23T04:46:10.470Z,120.83
2019-03-23T04:48:40.766Z,119.67
2019-03-23T04:51:11.651Z,118.02
2019-03-23T04:53:42.006Z,131.80
2019-03-23T04:56:12.271Z,128.30
2019-03-23T04:58:42.524Z,138.53
2019-03-23T05:01:12.955Z,140.43
2019-03-23T05:03:43.229Z,150.47
2019-03-23T05:06:13.458Z,151.23
2019-03-23T05:08:44.111Z,143.57
2019-03-23T05:11:14.493Z,146.30
2019-03-23T05:13:44.799Z,150.60
2019-03-23T05:16:15.159Z,150.30
2019-03-23T05:18:45.686Z,148.03
2019-03-23T05:21:16.141Z,153.02
2019-03-23T05:23:46.577Z,147.87
2019-03-23T05:26:16.853Z,156.43
2019-03-23T05:28:47.212Z,162.23
2019-03-23T05:31:17.567Z,154.70
2019-03-23T05:33:47.947Z,146.43
2019-03-23T05:36:18.391Z,140.37
2019-03-23T05:38:49.636Z,145.90
2019-03-23T05:41:19.882Z,145.40
2019-03-23T05:43:50.338Z,148.33
2019-03-23T05:46:20.699Z,153.27
2019-03-23T05:48:51.105Z,156.10
2019-03-23T05:51:21.388Z,147.20
2019-03-23T05:53:51.721Z,155.33
2019-03-23T05:56:22.102Z,149.53
2019-03-23T05:58:52.545Z,148.47
2019-03-23T06:01:22.883Z,155.97
2019-03-23T06:03:53.155Z,160.77
2019-03-23T06:06:23.604Z,167.70
2019-03-23T06:08:55.295Z,145.20
2019-03-23T06:11:26.087Z,140.93
2019-03-23T06:13:56.365Z,141.07
2019-03-23T06:16:26.609Z,129.35
2019-03-23T06:18:56.922Z,127.93
2019-03-23T06:21:27.185Z,129.00
2019-03-23T06:23:57.507Z,130.00
2019-03-23T06:26:27.868Z,141.25
2019-03-23T06:28:58.167Z,129.10
2019-03-23T06:31:28.678Z,141.73
2019-03-23T06:33:59.013Z,142.47
2019-03-23T06:36:29.320Z,124.63
2019-03-23T06:39:05.479Z,133.37
2019-03-23T06:41:32.765Z,137.73
2019-03-23T06:44:03.067Z,132.90
2019-03-23T06:46:33.352Z,136.83
2019-03-23T06:49:03.701Z,131.90
2019-03-23T06:51:34.107Z,121.93
2019-03-23T06:54:04.511Z,118.47
2019-03-23T06:56:34.886Z,117.30
2019-03-23T06:59:05.776Z,115.33
2019-03-23T07:01:36.299Z,125.30
2019-03-23T07:04:06.548Z,130.17
2019-03-23T07:06:37.673Z,115.27
2019-03-23T07:09:15.716Z,121.63
2019-03-23T07:11:40.125Z,115.17
2019-03-23T07:14:22.783Z,125.07
2019-03-23T07:16:53.678Z,124.83
2019-03-23T07:19:25.059Z,125.80
2019-03-23T07:21:55.378Z,114.80
2019-03-23T07:24:25.899Z,119.50
2019-03-23T07:26:56.304Z,117.60
2019-03-23T07:29:26.976Z,113.53
2019-03-23T07:32:05.472Z,119.33
2019-03-23T07:34:29.391Z,118.43
2019-03-23T07:36:59.867Z,119.73
2019-03-23T07:39:30.534Z,129.87
2019-03-23T07:42:01.113Z,118.37
2019-03-23T07:44:31.391Z,120.60
2019-03-23T07:47:01.869Z,117.90
2019-03-23T07:49:32.232Z,122.27
2019-03-23T07:52:02.638Z,116.20
2019-03-23T07:54:32.991Z,112.60
2019-03-23T07:57:03.402Z,122.30
2019-03-23T07:59:33.705Z,112.33
2019-03-23T08:02:04.288Z,118.77
2019-03-23T08:04:34.873Z,109.03
2019-03-23T08:07:05.369Z,121.63
2019-03-23T08:09:37.920Z,106.33
2019-03-23T08:12:08.933Z,115.00
2019-03-23T08:14:39.311Z,113.43
2019-03-23T08:17:09.548Z,122.72
2019-03-23T08:19:39.805Z,108.77
2019-03-23T08:22:20.918Z,116.88
2019-03-23T08:24:51.355Z,105.00
2019-03-23T08:27:21.760Z,109.20
2019-03-23T08:29:52.306Z,99.30
2019-03-23T08:32:22.633Z,95.47
2019-03-23T08:34:53.034Z,97.53
2019-03-23T08:37:23.357Z,100.30
2019-03-23T08:39:53.848Z,99.75
2019-03-23T08:42:25.379Z,105.43
2019-03-23T08:44:55.792Z,96.07
2019-03-23T08:47:26.375Z,97.90
2019-03-23T08:49:56.896Z,93.93
2019-03-23T08:52:28.923Z,94.13
2019-03-23T08:54:59.582Z,88.83
2019-03-23T08:57:29.912Z,89.63
2019-03-23T09:00:00.330Z,96.50
2019-03-23T09:02:30.681Z,89.22
2019-03-23T09:05:01.041Z,98.83
2019-03-23T09:07:31.499Z,99.17
2019-03-23T09:10:02.002Z,100.33
2019-03-23T09:12:32.793Z,97.57
2019-03-23T09:15:03.286Z,92.83
2019-03-23T09:17:35.074Z,94.90
2019-03-23T09:20:07.495Z,88.97
2019-03-23T09:22:38.007Z,98.23
2019-03-23T09:25:09.264Z,96.20
2019-03-23T09:27:39.744Z,98.37
2019-03-23T09:30:10.835Z,120.67
2019-03-23T09:32:42.303Z,86.67
2019-03-23T09:35:12.737Z,88.97
2019-03-23T09:37:43.188Z,85.90
2019-03-23T09:40:13.669Z,90.03
2019-03-23T09:42:44.261Z,88.93
2019-03-23T09:45:14.695Z,91.50
2019-03-23T09:47:46.330Z,90.67
2019-03-23T09:50:16.801Z,86.03
2019-03-23T09:52:47.178Z,89.70
2019-03-23T09:55:17.563Z,91.05
2019-03-23T09:57:47.957Z,86.47
2019-03-23T10:00:18.365Z,89.62
2019-03-23T10:02:48.763Z,88.27
2019-03-23T10:05:20.017Z,81.90
2019-03-23T10:07:50.408Z,85.90
2019-03-23T10:10:22.092Z,80.00
2019-03-23T10:12:52.576Z,82.50
2019-03-23T10:15:22.944Z,85.17
2019-03-23T10:17:53.255Z,77.17
2019-03-23T10:20:23.577Z,80.47
2019-03-23T10:22:54.036Z,85.90
2019-03-23T10:25:24.624Z,83.63
2019-03-23T10:27:55.087Z,77.23
2019-03-23T10:30:25.390Z,82.33
2019-03-23T10:32:55.923Z,77.93
2019-03-23T10:35:26.273Z,74.93
2019-03-23T10:37:56.556Z,82.10
2019-03-23T10:40:32.489Z,73.33
2019-03-23T10:43:00.180Z,62.93
2019-03-23T10:45:30.571Z,66.33
2019-03-23T10:48:00.899Z,65.17
2019-03-23T10:50:31.401Z,63.47
2019-03-23T10:53:01.681Z,67.03
2019-03-23T10:55:32.208Z,69.70
2019-03-23T10:58:02.819Z,68.47
2019-03-23T11:00:33.232Z,81.07
2019-03-23T11:03:03.799Z,80.80
2019-03-23T11:05:34.201Z,84.20
2019-03-23T11:08:04.502Z,78.37
2019-03-23T11:10:41.704Z,83.97
2019-03-23T11:13:07.060Z,80.83
2019-03-23T11:15:37.913Z,76.95
2019-03-23T11:18:08.465Z,75.90
2019-03-23T11:20:38.847Z,76.53
2019-03-23T11:23:09.310Z,75.85
2019-03-23T11:25:39.672Z,85.33
2019-03-23T11:28:09.976Z,85.25
2019-03-23T11:30:40.419Z,75.40
2019-03-23T11:33:12.495Z,72.63
2019-03-23T11:35:42.942Z,76.23
2019-03-23T11:38:13.689Z,76.57
2019-03-23T11:40:52.749Z,68.60
2019-03-23T11:43:17.042Z,65.87
2019-03-23T11:45:51.653Z,63.00
2019-03-23T11:48:22.890Z,58.13
2019-03-23T11:50:53.852Z,61.03
2019-03-23T11:53:24.342Z,57.87
2019-03-23T11:55:56.462Z,57.73
2019-03-23T11:58:26.726Z,59.33
2019-03-23T12:00:57.408Z,53.33
2019-03-23T12:03:28.947Z,52.63
2019-03-23T12:06:02.292Z,49.90
2019-03-23T12:08:36.201Z,57.03
2019-03-23T12:11:06.692Z,56.83
2019-03-23T12:13:37.133Z,57.10
2019-03-23T12:16:07.478Z,59.30
2019-03-23T12:18:38.133Z,58.00
2019-03-23T12:21:08.715Z,56.83
2019-03-23T12:23:39.379Z,52.47
2019-03-23T12:26:09.765Z,51.37
2019-03-23T12:28:40.195Z,49.80
2019-03-23T12:31:10.763Z,45.87
2019-03-23T12:33:41.086Z,47.67
2019-03-23T12:36:14.508Z,48.73
2019-03-23T12:38:44.951Z,48.00
2019-03-23T12:41:22.991Z,48.97
2019-03-23T12:43:49.653Z,45.70
2019-03-23T12:46:20.012Z,47.23
2019-03-23T12:48:50.570Z,50.07
2019-03-23T12:51:21.379Z,44.93
2019-03-23T12:53:52.102Z,44.38
2019-03-23T12:56:22.524Z,42.47
2019-03-23T12:58:53.049Z,46.27
2019-03-23T13:01:23.499Z,46.20
2019-03-23T13:03:53.950Z,47.13
2019-03-23T13:06:24.240Z,45.52
2019-03-23T13:08:54.609Z,42.23
2019-03-23T13:11:34.887Z,41.80
2019-03-23T13:13:58.880Z,46.40
2019-03-23T13:16:29.320Z,48.33
2019-03-23T13:19:00.178Z,43.83
2019-03-23T13:21:30.607Z,44.63
2019-03-23T13:24:00.998Z,44.87
2019-03-23T13:26:31.532Z,40.97
2019-03-23T13:29:01.895Z,44.60
2019-03-23T13:31:32.291Z,46.27
2019-03-23T13:34:02.774Z,43.50
2019-03-23T13:36:33.031Z,44.40
2019-03-23T13:39:04.628Z,44.93
2019-03-23T13:41:41.190Z,40.00
2019-03-23T13:44:07.031Z,43.83
2019-03-23T13:46:37.499Z,39.58
2019-03-23T13:49:07.898Z,38.77
2019-03-23T13:51:38.649Z,39.63
2019-03-23T13:54:09.116Z,38.37
2019-03-23T13:56:39.633Z,36.70
2019-03-23T13:59:10.067Z,36.97
2019-03-23T14:01:40.408Z,37.67
2019-03-23T14:04:10.773Z,37.10
2019-03-23T14:06:41.226Z,37.33
2019-03-23T14:09:11.525Z,39.43
2019-03-23T14:11:41.865Z,35.93
2019-03-23T14:14:12.455Z,36.30
2019-03-23T14:16:42.896Z,37.35
2019-03-23T14:19:13.210Z,37.20
2019-03-23T14:21:45.258Z,39.07
2019-03-23T14:24:20.785Z,41.17
2019-03-23T14:26:51.056Z,39.23
2019-03-23T14:29:21.596Z,40.73
2019-03-23T14:31:52.085Z,35.53
2019-03-23T14:34:22.405Z,37.67
2019-03-23T14:36:52.719Z,37.27
2019-03-23T14:39:42.026Z,35.83
2019-03-23T14:42:12.286Z,40.70
2019-03-23T14:44:42.635Z,39.17
2019-03-23T14:47:12.931Z,42.97
2019-03-23T14:49:43.210Z,40.50
2019-03-23T14:52:13.465Z,39.93
2019-03-23T14:54:43.920Z,44.00
2019-03-23T14:57:14.320Z,42.60
2019-03-23T14:59:44.624Z,42.53
2019-03-23T15:02:14.907Z,42.77
2019-03-23T15:04:45.216Z,46.53
2019-03-23T15:07:15.468Z,44.53
2019-03-23T15:09:45.848Z,40.00
2019-03-23T15:12:16.564Z,43.63
2019-03-23T15:14:46.828Z,43.77
2019-03-23T15:17:17.413Z,43.43
2019-03-23T15:19:48.014Z,47.80
2019-03-23T15:22:18.541Z,50.20
2019-03-23T15:24:49.001Z,47.77
2019-03-23T15:27:19.656Z,48.97
2019-03-23T15:29:50.573Z,46.33
2019-03-23T15:32:20.933Z,46.10
2019-03-23T15:34:51.265Z,48.50
2019-03-23T15:37:21.597Z,48.17
2019-03-23T15:39:51.943Z,47.10
2019-03-23T15:42:24.905Z,44.33
2019-03-23T15:44:54.418Z,47.97
2019-03-23T15:47:24.774Z,46.30
2019-03-23T15:49:55.115Z,46.03
2019-03-23T15:52:25.371Z,45.10
2019-03-23T15:54:55.705Z,50.33
2019-03-23T15:57:26.949Z,53.00
2019-03-23T15:59:57.257Z,50.57
2019-03-23T16:02:27.498Z,52.90
2019-03-23T16:04:58.603Z,52.83
2019-03-23T16:07:29.721Z,50.70
2019-03-23T16:10:00.408Z,51.00
2019-03-23T16:12:34.813Z,46.50
2019-03-23T16:15:03.057Z,47.87
2019-03-23T16:17:33.584Z,49.53
2019-03-23T16:20:04.381Z,50.08
2019-03-23T16:22:34.977Z,46.73
2019-03-23T16:25:05.792Z,47.97
2019-03-23T16:27:36.338Z,49.90
2019-03-23T16:30:07.865Z,48.38
2019-03-23T16:32:38.281Z,56.50
2019-03-23T16:35:09.494Z,48.75
2019-03-23T16:37:39.787Z,50.20
2019-03-23T16:40:11.046Z,52.23
2019-03-23T16:42:45.598Z,52.30
2019-03-23T16:45:13.777Z,48.10
2019-03-23T16:47:44.072Z,46.27
2019-03-23T16:50:14.427Z,46.87
2019-03-23T16:52:44.708Z,52.20
2019-03-23T16:55:15.233Z,51.20
2019-03-23T16:57:45.885Z,52.53
2019-03-23T17:00:18.045Z,50.50
2019-03-23T17:02:48.497Z,52.50
2019-03-23T17:05:18.795Z,53.13
2019-03-23T17:07:49.180Z,51.80
2019-03-23T17:10:19.450Z,45.70
2019-03-23T17:12:55.380Z,46.87
2019-03-23T17:15:22.790Z,51.27
2019-03-23T17:17:53.053Z,48.70
2019-03-23T17:20:23.531Z,50.30
2019-03-23T17:22:53.749Z,50.90
2019-03-23T17:25:24.113Z,47.73
2019-03-23T17:27:54.387Z,50.03
2019-03-23T17:30:24.641Z,49.80
2019-03-23T17:32:54.922Z,50.88
2019-03-23T17:35:25.217Z,50.57
2019-03-23T17:37:56.431Z,55.63
2019-03-23T17:40:26.763Z,54.50
2019-03-23T17:43:05.537Z,52.40
2019-03-23T17:45:29.083Z,49.08
2019-03-23T17:47:59.470Z,49.60
2019-03-23T17:50:29.894Z,53.87
2019-03-23T17:53:01.348Z,51.40
2019-03-23T17:55:31.636Z,54.97
2019-03-23T17:58:02.039Z,56.87
2019-03-23T18:00:32.529Z,54.90
2019-03-23T18:03:03.604Z,53.17
2019-03-23T18:05:34.439Z,52.77
2019-03-23T18:08:04.989Z,52.73
2019-03-23T18:10:35.458Z,52.03
2019-03-23T18:13:15.958Z,49.00
2019-03-23T18:15:39.083Z,49.40
2019-03-23T18:18:09.532Z,54.47
2019-03-23T18:20:39.902Z,52.13
2019-03-23T18:23:10.256Z,53.37
2019-03-23T18:25:40.803Z,56.98
2019-03-23T18:28:11.269Z,56.00
2019-03-23T18:30:42.946Z,58.48
2019-03-23T18:33:13.404Z,50.97
2019-03-23T18:35:44.205Z,57.70
2019-03-23T18:38:15.891Z,57.57
2019-03-23T18:40:47.207Z,59.60
2019-03-23T18:43:26.979Z,59.03
2019-03-23T18:45:49.829Z,57.85
2019-03-23T18:48:22.761Z,56.17
2019-03-23T18:50:53.099Z,52.67
2019-03-23T18:53:57.353Z,56.87
2019-03-23T18:56:40.513Z,53.53
2019-03-23T18:59:12.231Z,56.30
2019-03-23T19:01:44.402Z,56.83
2019-03-23T19:04:14.847Z,46.30
2019-03-23T19:06:45.506Z,38.17
2019-03-23T19:09:24.750Z,37.13
2019-03-23T19:11:57.390Z,26.97
2019-03-23T19:14:29.773Z,28.40
2019-03-23T19:17:03.174Z,27.47
2019-03-23T19:19:35.288Z,31.40
2019-03-23T19:22:05.979Z,24.27
2019-03-23T19:24:36.221Z,29.10
2019-03-23T19:27:06.661Z,25.07
2019-03-23T19:29:37.885Z,25.83
2019-03-23T19:32:08.320Z,25.07
2019-03-23T19:34:38.648Z,23.90
2019-03-23T19:37:09.099Z,24.20
2019-03-23T19:39:39.491Z,23.73
2019-03-23T19:42:09.861Z,27.27
2019-03-23T19:44:40.276Z,24.43
2019-03-23T19:47:10.852Z,27.03
2019-03-23T19:49:41.438Z,24.83
2019-03-23T19:52:11.807Z,22.97
2019-03-23T19:54:42.073Z,26.97
2019-03-23T19:57:12.478Z,25.20
2019-03-23T19:59:43.003Z,28.07
2019-03-23T20:02:13.475Z,24.70
2019-03-23T20:04:43.789Z,25.77
2019-03-23T20:07:14.240Z,29.80
2019-03-23T20:09:44.629Z,27.53
2019-03-23T20:12:16.621Z,27.40
2019-03-23T20:14:46.959Z,27.07
2019-03-23T20:17:17.199Z,27.23
2019-03-23T20:19:47.549Z,26.47
2019-03-23T20:22:18.655Z,28.67
2019-03-23T20:24:48.976Z,23.53
2019-03-23T20:27:20.301Z,27.20
2019-03-23T20:29:50.598Z,28.27
2019-03-23T20:32:21.061Z,28.23
2019-03-23T20:34:51.376Z,27.77
2019-03-23T20:37:21.788Z,28.50
2019-03-23T20:39:53.023Z,29.95
2019-03-23T20:42:26.796Z,26.50
2019-03-23T20:44:57.823Z,29.53
2019-03-23T20:47:28.289Z,29.33
2019-03-23T20:49:58.635Z,26.47
2019-03-23T20:52:29.012Z,25.93
2019-03-23T20:54:59.515Z,25.87
2019-03-23T20:57:37.287Z,26.83
2019-03-23T21:00:02.146Z,23.53
2019-03-23T21:02:33.676Z,27.63
2019-03-23T21:05:04.143Z,24.63
2019-03-23T21:07:34.386Z,24.37
2019-03-23T21:10:05.697Z,22.37
2019-03-23T21:12:36.082Z,21.67
2019-03-23T21:15:06.950Z,22.90
2019-03-23T21:17:50.409Z,19.80
2019-03-23T21:20:10.899Z,21.37
2019-03-23T21:22:41.275Z,17.43
2019-03-23T21:25:11.897Z,20.77
2019-03-23T21:27:42.283Z,17.73
2019-03-23T21:30:15.162Z,19.03
2019-03-23T21:32:45.694Z,21.15
2019-03-23T21:35:16.469Z,19.17
2019-03-23T21:37:46.749Z,20.03
2019-03-23T21:40:17.113Z,18.33
2019-03-23T21:42:47.477Z,14.57
2019-03-23T21:45:19.435Z,16.50
2019-03-23T21:47:50.958Z,17.67
2019-03-23T21:50:22.259Z,17.52
2019-03-23T21:52:52.731Z,18.13
2019-03-23T21:55:23.468Z,16.63
2019-03-23T21:57:53.913Z,16.83
2019-03-23T22:00:34.316Z,18.07
2019-03-23T22:03:04.875Z,14.57
2019-03-23T22:05:35.768Z,14.00
2019-03-23T22:08:06.239Z,13.03
2019-03-23T22:10:36.619Z,13.28
2019-03-23T22:13:07.113Z,14.90
2019-03-23T22:15:37.581Z,17.47
2019-03-23T22:18:08.052Z,12.78
2019-03-23T22:20:38.552Z,19.73
2019-03-23T22:23:09.069Z,14.10
2019-03-23T22:25:39.363Z,10.73
2019-03-23T22:28:10.099Z,13.30
2019-03-23T22:30:40.378Z,11.70
2019-03-23T22:33:10.868Z,14.47
2019-03-23T22:35:41.359Z,11.33
2019-03-23T22:38:11.811Z,11.93
2019-03-23T22:40:42.356Z,12.77
2019-03-23T22:43:13.053Z,13.50
2019-03-23T22:45:43.291Z,12.13
2019-03-23T22:48:13.783Z,10.33
2019-03-23T22:50:44.242Z,11.07
2019-03-23T22:53:14.541Z,14.77
2019-03-23T22:55:45.790Z,14.63
2019-03-23T22:58:16.265Z,13.73
2019-03-23T23:00:48.103Z,14.40
2019-03-23T23:03:19.058Z,15.20
2019-03-23T23:05:49.662Z,15.20
2019-03-23T23:08:19.917Z,11.37
2019-03-23T23:10:50.165Z,10.83
2019-03-23T23:13:20.563Z,14.00
2019-03-23T23:15:50.908Z,15.53
2019-03-23T23:18:21.357Z,13.23
2019-03-23T23:20:51.728Z,13.37
2019-03-23T23:23:22.139Z,13.48
2019-03-23T23:25:52.453Z,15.17
2019-03-23T23:28:22.878Z,14.23
2019-03-23T23:30:53.169Z,18.47
2019-03-23T23:33:23.721Z,13.43
2019-03-23T23:35:57.149Z,15.83
2019-03-23T23:38:27.575Z,17.30
2019-03-23T23:40:57.844Z,21.57
2019-03-23T23:43:29.346Z,15.60
2019-03-23T23:46:00.496Z,13.93
2019-03-23T23:48:31.841Z,15.07
2019-03-23T23:51:02.135Z,18.20
2019-03-23T23:53:33.499Z,17.00
2019-03-23T23:56:04.413Z,17.87
2019-03-23T23:58:35.707Z,14.80
